Time;durP1;ratioP1;P1;durP2;ratioP2;P2;SDS_P1;SDS_P2;PMS_P1;PMS_P2;Temp;Humidity;BMP_temperature;BMP_pressure;BME280_temperature;BME280_humidity;BME280_pressure;Samples;Min_cycle;Max_cycle;Signal;HPM_P1;HPM_P2
2023/10/01 00:00:28;;;;;;;7.47;2.20;;;32.70;36.60;;;;;;5060386;28;20085;-71
2023/10/01 00:02:59;;;;;;;4.20;1.92;;;33.20;36.00;;;;;;5059285;28;20025;-72
2023/10/01 00:05:26;;;;;;;4.03;2.00;;;33.10;36.00;;;;;;5061487;28;20090;-72
2023/10/01 00:07:54;;;;;;;8.27;2.33;;;33.50;36.50;;;;;;5056328;28;20064;-72
2023/10/01 00:10:22;;;;;;;3.30;1.67;;;33.60;35.80;;;;;;5055414;28;20028;-72
2023/10/01 00:12:54;;;;;;;5.97;1.90;;;33.40;35.50;;;;;;5056907;28;20074;-72
2023/10/01 00:15:24;;;;;;;6.13;2.00;;;33.30;35.30;;;;;;5057334;28;20553;-71
2023/10/01 00:17:52;;;;;;;3.47;1.60;;;33.20;35.00;;;;;;5055665;28;20028;-72
2023/10/01 00:20:24;;;;;;;7.13;2.15;;;33.00;35.00;;;;;;5052659;28;20040;-71
2023/10/01 00:22:56;;;;;;;7.30;2.28;;;33.40;34.90;;;;;;5053799;28;20025;-71
2023/10/01 00:25:24;;;;;;;6.70;2.67;;;33.80;34.10;;;;;;5056393;28;20409;-72
2023/10/01 00:27:52;;;;;;;5.03;2.22;;;33.60;35.10;;;;;;5057169;28;20124;-72
2023/10/01 00:30:19;;;;;;;8.05;2.33;;;33.90;34.50;;;;;;5061068;28;20377;-73
2023/10/01 00:32:46;;;;;;;4.82;2.05;;;33.90;34.00;;;;;;5054347;28;20063;-71
2023/10/01 00:35:14;;;;;;;5.80;2.13;;;33.90;34.10;;;;;;5052147;28;20025;-70
2023/10/01 00:37:41;;;;;;;5.28;2.50;;;33.70;33.80;;;;;;5049317;28;20033;-71
2023/10/01 00:40:10;;;;;;;4.43;2.10;;;33.50;34.50;;;;;;5052400;28;20068;-72
2023/10/01 00:42:39;;;;;;;7.32;2.40;;;33.80;33.90;;;;;;5051646;28;20017;-71
2023/10/01 00:45:08;;;;;;;3.13;2.22;;;33.80;34.30;;;;;;5054212;28;20029;-72
2023/10/01 00:47:41;;;;;;;4.55;2.28;;;33.70;33.40;;;;;;5059364;28;20032;-70
2023/10/01 00:50:28;;;;;;;3.40;2.05;;;34.00;33.70;;;;;;5064352;28;20035;-71
2023/10/01 00:52:58;;;;;;;4.88;2.45;;;34.30;33.20;;;;;;5048219;28;20060;-72
2023/10/01 00:55:26;;;;;;;7.22;2.88;;;34.60;33.50;;;;;;5048617;28;20036;-71
2023/10/01 00:57:56;;;;;;;4.93;2.47;;;34.60;33.90;;;;;;5054766;28;20305;-71
2023/10/01 01:00:25;;;;;;;5.95;2.83;;;35.10;33.70;;;;;;5057762;28;20036;-71
2023/10/01 01:05:36;;;;;;;7.25;2.70;;;35.40;32.40;;;;;;5064921;28;20039;-69
2023/10/01 01:08:28;;;;;;;7.22;2.40;;;34.90;33.00;;;;;;5052782;28;20033;-71
2023/10/01 01:10:57;;;;;;;8.68;2.22;;;34.90;33.00;;;;;;5070421;28;20074;-71
2023/10/01 01:13:28;;;;;;;8.07;2.55;;;34.70;32.90;;;;;;5053490;28;20414;-72
2023/10/01 01:15:57;;;;;;;4.20;2.70;;;35.00;33.20;;;;;;5052406;28;20052;-71
2023/10/01 01:18:33;;;;;;;5.30;2.50;;;35.30;32.50;;;;;;5057236;28;20482;-72
2023/10/01 01:21:09;;;;;;;4.68;1.95;;;35.10;32.70;;;;;;5057355;28;20029;-71
2023/10/01 01:23:37;;;;;;;4.63;2.47;;;35.80;32.50;;;;;;5060043;28;20075;-72
2023/10/01 01:26:07;;;;;;;5.85;2.40;;;36.00;32.30;;;;;;5052264;28;21405;-72
2023/10/01 01:28:35;;;;;;;5.47;2.20;;;36.00;32.20;;;;;;5053136;28;20428;-71
2023/10/01 01:31:04;;;;;;;7.22;2.30;;;36.00;32.30;;;;;;5051158;28;20029;-71
2023/10/01 01:33:33;;;;;;;6.47;2.58;;;35.80;32.00;;;;;;5049680;28;20044;-72
2023/10/01 01:36:08;;;;;;;5.80;2.22;;;36.20;31.80;;;;;;5056662;28;20504;-70
2023/10/01 01:38:37;;;;;;;5.75;2.38;;;36.40;31.90;;;;;;5057570;28;20040;-73
2023/10/01 01:41:12;;;;;;;8.23;2.50;;;36.10;31.50;;;;;;5059184;28;20106;-71
2023/10/01 01:43:46;;;;;;;5.32;2.13;;;36.10;32.10;;;;;;5061744;28;20036;-73
2023/10/01 01:46:14;;;;;;;5.40;2.00;;;36.20;31.40;;;;;;5061150;28;20139;-73
2023/10/01 01:48:43;;;;;;;5.18;1.77;;;36.50;30.50;;;;;;5056592;28;20035;-70
2023/10/01 01:51:10;;;;;;;2.30;1.30;;;36.70;27.70;;;;;;5053124;28;20102;-71
2023/10/01 01:53:41;;;;;;;1.75;1.00;;;36.50;27.20;;;;;;5059584;28;20486;-72
2023/10/01 01:56:12;;;;;;;7.45;1.42;;;36.50;26.80;;;;;;5059916;28;20025;-73
2023/10/01 01:58:41;;;;;;;4.40;1.40;;;36.30;26.90;;;;;;5061925;28;20021;-72
2023/10/01 02:01:11;;;;;;;4.05;1.42;;;36.40;27.40;;;;;;5060813;28;20039;-72
2023/10/01 02:03:52;;;;;;;5.15;1.55;;;36.70;26.90;;;;;;5053559;28;20031;-71
2023/10/01 02:06:27;;;;;;;6.15;1.67;;;37.00;27.30;;;;;;5047502;28;20017;-72
2023/10/01 02:08:57;;;;;;;4.15;1.27;;;37.50;27.20;;;;;;5044670;28;20094;-72
2023/10/01 02:11:25;;;;;;;4.15;1.30;;;36.90;26.60;;;;;;5050176;28;20044;-72
2023/10/01 02:13:58;;;;;;;6.40;1.20;;;36.90;27.00;;;;;;5054973;28;20089;-72
2023/10/01 02:21:49;;;;;;;7.20;1.70;;;37.40;26.50;;;;;;5048773;28;20091;-71
2023/10/01 02:24:37;;;;;;;3.15;1.30;;;37.20;26.70;;;;;;5046954;28;20049;-71
2023/10/01 02:27:05;;;;;;;4.38;1.38;;;37.40;26.50;;;;;;5057194;28;20041;-72
2023/10/01 02:29:32;;;;;;;3.15;1.23;;;37.50;26.80;;;;;;5051140;28;20425;-72
2023/10/01 02:32:04;;;;;;;3.00;1.35;;;37.80;26.60;;;;;;5062699;28;20029;-72
2023/10/01 02:34:32;;;;;;;6.72;1.30;;;37.70;26.50;;;;;;5058632;28;20099;-71
2023/10/01 02:37:06;;;;;;;4.72;1.20;;;37.40;25.60;;;;;;5058142;28;20039;-71
2023/10/01 02:39:37;;;;;;;4.25;1.10;;;37.20;26.00;;;;;;5061239;28;20260;-72
2023/10/01 02:44:40;;;;;;;7.00;1.88;;;37.30;25.50;;;;;;5063425;28;20526;-72
2023/10/01 02:47:16;;;;;;;2.28;0.77;;;37.70;25.80;;;;;;5065233;28;20111;-72
2023/10/01 02:49:49;;;;;;;;;;;38.10;25.50;;;;;;5057359;28;20392;-71
2023/10/01 02:52:36;;;;;;;3.40;1.05;;;38.30;25.00;;;;;;5059483;28;19960;-73
2023/10/01 02:55:17;;;;;;;5.80;1.30;;;38.10;25.80;;;;;;5058947;28;20123;-73
2023/10/01 02:57:50;;;;;;;4.28;1.00;;;38.40;24.90;;;;;;5069327;28;20029;-72
2023/10/01 03:02:53;;;;;;;8.57;1.60;;;38.60;24.50;;;;;;5061694;28;20362;-72
2023/10/01 03:05:36;;;;;;;3.08;0.88;;;38.20;24.70;;;;;;5059920;28;20034;-72
2023/10/01 03:08:11;;;;;;;4.43;0.90;;;38.50;24.80;;;;;;5055687;28;20120;-72
2023/10/01 03:10:39;;;;;;;3.20;1.10;;;38.60;24.70;;;;;;5056076;28;20115;-72
2023/10/01 03:13:15;;;;;;;4.72;1.67;;;38.40;25.10;;;;;;5061318;28;20047;-70
2023/10/01 03:15:44;;;;;;;5.97;1.10;;;38.20;25.00;;;;;;5060512;28;20016;-73
2023/10/01 03:28:28;;;;;;;3.25;1.10;;;37.20;25.10;;;;;;5054805;28;20043;-72
2023/10/01 03:31:18;;;;;;;5.18;1.42;;;37.00;25.00;;;;;;5055216;28;20021;-72
2023/10/01 03:33:45;;;;;;;6.82;1.60;;;36.90;25.20;;;;;;5052692;28;20056;-71
2023/10/01 03:36:20;;;;;;;9.25;1.67;;;36.80;25.50;;;;;;5060487;28;20799;-71
2023/10/01 03:38:48;;;;;;;11.40;1.42;;;36.90;25.70;;;;;;5051783;28;20111;-73
2023/10/01 03:41:24;;;;;;;3.13;1.00;;;37.10;25.30;;;;;;5046034;28;20029;-72
2023/10/01 03:43:56;;;;;;;5.63;1.05;;;36.70;25.40;;;;;;5050789;28;20374;-72
2023/10/01 03:46:26;;;;;;;4.22;1.05;;;36.80;25.50;;;;;;5044955;28;20067;-71
2023/10/01 03:48:58;;;;;;;2.92;1.00;;;37.30;25.30;;;;;;5047884;28;20663;-72
2023/10/01 03:54:52;;;;;;;4.25;1.05;;;37.40;24.90;;;;;;5046331;28;20084;-70
2023/10/01 03:57:17;;;;;;;6.90;1.23;;;37.30;24.70;;;;;;5045693;28;20039;-72
2023/10/01 03:59:57;;;;;;;3.75;1.02;;;37.30;24.80;;;;;;5045933;28;20803;-73
2023/10/01 04:02:28;;;;;;;2.47;1.02;;;37.30;25.00;;;;;;5045570;28;20100;-71
2023/10/01 04:04:59;;;;;;;2.90;1.15;;;37.60;24.70;;;;;;5044312;28;20053;-74
2023/10/01 04:07:43;;;;;;;3.20;1.35;;;37.60;24.90;;;;;;5051121;28;20493;-72
2023/10/01 04:10:28;;;;;;;6.22;1.50;;;37.50;24.70;;;;;;5052090;28;20033;-73
2023/10/01 04:13:05;;;;;;;4.07;1.30;;;36.90;24.90;;;;;;5036166;28;20040;-72
2023/10/01 04:15:40;;;;;;;4.85;1.42;;;37.00;25.20;;;;;;5047745;28;20040;-72
2023/10/01 04:21:28;;;;;;;4.53;0.90;;;36.90;25.20;;;;;;5037396;28;20033;-72
2023/10/01 04:23:40;;;;;;;8.60;1.30;;;37.10;25.20;;;;;;5044770;28;20056;-71
2023/10/01 04:26:13;;;;;;;6.55;1.13;;;37.00;24.80;;;;;;5041836;28;20030;-73
2023/10/01 04:28:45;;;;;;;3.95;1.20;;;37.00;25.20;;;;;;5052269;28;20028;-72
2023/10/01 04:31:18;;;;;;;2.05;1.20;;;36.80;25.00;;;;;;5053958;28;20496;-72
2023/10/01 04:33:48;;;;;;;5.00;1.33;;;36.70;25.30;;;;;;5050894;28;20027;-72
2023/10/01 04:36:16;;;;;;;3.90;1.20;;;36.90;25.50;;;;;;5043850;28;20049;-73
2023/10/01 04:38:51;;;;;;;5.18;1.17;;;37.20;25.80;;;;;;5042143;28;21168;-72
2023/10/01 04:41:21;;;;;;;4.18;1.35;;;36.90;25.20;;;;;;5052236;28;20036;-73
2023/10/01 04:43:52;;;;;;;4.78;1.45;;;36.70;25.70;;;;;;5049071;28;20083;-73
2023/10/01 04:46:30;;;;;;;6.22;1.50;;;36.40;25.70;;;;;;5057158;28;20027;-75
2023/10/01 04:48:57;;;;;;;5.30;1.42;;;36.30;25.70;;;;;;5046961;28;20049;-73
2023/10/01 04:51:44;;;;;;;6.10;1.17;;;36.00;25.80;;;;;;5043276;28;20052;-73
2023/10/01 04:54:17;;;;;;;4.55;1.80;;;35.70;25.70;;;;;;5056718;28;20021;-74
2023/10/01 04:56:49;;;;;;;5.65;1.10;;;35.70;25.90;;;;;;5060746;28;20433;-74
2023/10/01 04:59:17;;;;;;;8.80;1.42;;;36.00;26.00;;;;;;5056569;28;20029;-72
2023/10/01 05:01:47;;;;;;;4.95;1.58;;;36.20;26.10;;;;;;5049158;28;20378;-72
2023/10/01 05:04:14;;;;;;;3.10;1.48;;;36.40;25.80;;;;;;5053535;28;20107;-73
2023/10/01 05:06:59;;;;;;;4.68;0.90;;;36.80;25.70;;;;;;5048216;28;20021;-74
2023/10/01 05:09:30;;;;;;;4.70;1.15;;;36.90;25.90;;;;;;5068172;28;20057;-73
2023/10/01 05:11:58;;;;;;;7.97;1.40;;;37.00;25.90;;;;;;5045515;28;20116;-73
2023/10/01 05:14:27;;;;;;;7.40;1.40;;;36.70;26.00;;;;;;5054553;28;20028;-73
2023/10/01 05:16:55;;;;;;;7.68;1.30;;;36.50;26.20;;;;;;5060332;28;20067;-73
2023/10/01 05:19:29;;;;;;;4.50;1.40;;;36.40;26.20;;;;;;5064398;28;20029;-74
2023/10/01 05:21:56;;;;;;;6.10;1.15;;;36.50;25.90;;;;;;5054237;28;20025;-73
2023/10/01 05:24:36;;;;;;;7.47;1.13;;;36.50;25.70;;;;;;5064532;28;20057;-73
2023/10/01 05:27:18;;;;;;;8.43;1.05;;;36.70;25.20;;;;;;5053956;28;20025;-74
2023/10/01 05:29:46;;;;;;;4.38;1.25;;;36.70;25.00;;;;;;5055072;28;20031;-74
2023/10/01 05:32:17;;;;;;;6.25;1.30;;;36.90;25.40;;;;;;5055431;28;20051;-75
2023/10/01 05:34:49;;;;;;;4.43;1.30;;;37.10;25.20;;;;;;5056750;28;20409;-75
2023/10/01 05:37:24;;;;;;;5.22;1.00;;;37.00;25.30;;;;;;5060706;28;20057;-73
2023/10/01 05:39:57;;;;;;;7.88;1.48;;;36.70;25.10;;;;;;5057842;28;20104;-73
2023/10/01 05:42:26;;;;;;;6.30;1.58;;;36.50;25.00;;;;;;5053966;28;20051;-73
2023/10/01 05:44:59;;;;;;;11.60;1.30;;;36.70;25.40;;;;;;5065967;28;20024;-73
2023/10/01 05:48:16;;;;;;;2.55;1.00;;;36.80;25.00;;;;;;5060682;28;20021;-73
2023/10/01 05:50:18;;;;;;;4.30;1.10;;;36.90;25.00;;;;;;5047554;28;20501;-74
2023/10/01 05:52:46;;;;;;;6.40;1.05;;;36.90;24.40;;;;;;5056264;28;20071;-73
2023/10/01 05:55:15;;;;;;;3.78;1.30;;;36.70;24.70;;;;;;5071435;28;20028;-73
2023/10/01 05:57:43;;;;;;;4.82;1.00;;;36.60;24.70;;;;;;5057129;28;20133;-74
2023/10/01 06:00:18;;;;;;;2.70;1.38;;;36.40;24.80;;;;;;5059429;28;20029;-73
2023/10/01 06:03:00;;;;;;;3.38;1.00;;;36.10;24.60;;;;;;5055127;28;20075;-73
2023/10/01 06:05:42;;;;;;;4.85;1.10;;;35.80;24.80;;;;;;5061950;28;20437;-74
2023/10/01 06:08:15;;;;;;;3.60;1.40;;;35.50;24.70;;;;;;5058691;28;20052;-74
2023/10/01 06:11:15;;;;;;;3.65;1.30;;;35.50;24.90;;;;;;5058514;28;20042;-74
2023/10/01 06:13:51;;;;;;;6.93;1.80;;;35.40;24.70;;;;;;5062338;28;20036;-73
2023/10/01 06:16:25;;;;;;;4.65;1.30;;;35.30;24.70;;;;;;5079168;28;20025;-74
2023/10/01 06:18:59;;;;;;;5.03;1.00;;;35.20;24.60;;;;;;5060799;28;20039;-74
2023/10/01 06:21:28;;;;;;;2.35;0.93;;;35.10;24.30;;;;;;5060703;28;20075;-74
2023/10/01 06:24:04;;;;;;;5.72;1.30;;;35.20;24.30;;;;;;5066701;28;20057;-75
2023/10/01 06:27:06;;;;;;;2.80;1.00;;;35.20;24.30;;;;;;5066140;28;20488;-74
2023/10/01 06:29:25;;;;;;;5.50;1.23;;;35.30;24.00;;;;;;5059533;28;20037;-74
2023/10/01 06:32:00;;;;;;;3.97;0.90;;;35.30;24.10;;;;;;5062287;28;20028;-75
2023/10/01 06:34:39;;;;;;;3.30;1.50;;;35.20;24.40;;;;;;5063127;28;20041;-73
2023/10/01 06:37:06;;;;;;;4.82;1.17;;;35.40;24.60;;;;;;5056781;28;20418;-73
2023/10/01 06:39:35;;;;;;;6.43;1.00;;;35.50;24.60;;;;;;5062675;28;20025;-73
2023/10/01 06:42:19;;;;;;;4.00;1.20;;;35.60;24.90;;;;;;5078966;28;20033;-73
2023/10/01 06:44:52;;;;;;;6.22;1.05;;;35.70;25.00;;;;;;5058372;28;20037;-73
2023/10/01 06:47:22;;;;;;;3.08;1.10;;;35.90;24.80;;;;;;5058793;28;20113;-73
2023/10/01 06:49:57;;;;;;;5.20;1.10;;;35.90;25.10;;;;;;5056835;28;20123;-73
2023/10/01 06:52:29;;;;;;;4.05;1.40;;;35.90;25.00;;;;;;5056127;28;20045;-72
2023/10/01 06:54:59;;;;;;;6.50;1.10;;;35.80;25.40;;;;;;5054001;28;20147;-74
2023/10/01 06:57:33;;;;;;;3.50;0.98;;;35.70;25.40;;;;;;5057414;28;20111;-74
2023/10/01 07:00:00;;;;;;;3.92;1.17;;;35.60;25.20;;;;;;5062587;28;20028;-72
2023/10/01 07:02:28;;;;;;;5.07;1.25;;;35.40;25.20;;;;;;5065633;28;20094;-70
2023/10/01 07:04:58;;;;;;;3.40;1.10;;;35.10;25.20;;;;;;5054397;28;20103;-72
2023/10/01 07:07:28;;;;;;;6.45;1.23;;;35.00;25.30;;;;;;5059818;28;20507;-72
2023/10/01 07:09:56;;;;;;;5.68;1.10;;;35.00;25.40;;;;;;5056211;28;20116;-73
2023/10/01 07:12:24;;;;;;;4.63;1.50;;;34.90;25.50;;;;;;5051729;28;20032;-71
2023/10/01 07:14:52;;;;;;;8.68;1.67;;;34.80;25.60;;;;;;5066876;28;20108;-71
2023/10/01 07:17:28;;;;;;;4.90;1.10;;;34.70;25.60;;;;;;5056828;28;20035;-72
2023/10/01 07:20:18;;;;;;;3.80;1.10;;;34.70;25.90;;;;;;5054436;28;20078;-73
2023/10/01 07:22:46;;;;;;;6.13;1.02;;;34.70;25.80;;;;;;5051456;28;20301;-72
2023/10/01 07:25:37;;;;;;;6.97;1.02;;;34.60;25.70;;;;;;5054365;28;20028;-72
2023/10/01 07:28:18;;;;;;;2.45;1.20;;;34.50;25.70;;;;;;5056916;28;20024;-73
2023/10/01 07:30:51;;;;;;;7.88;1.90;;;34.40;26.10;;;;;;5059043;28;20055;-72
2023/10/01 07:33:29;;;;;;;5.50;2.38;;;34.30;26.10;;;;;;5054443;28;20032;-72
2023/10/01 07:35:59;;;;;;;3.78;0.95;;;34.20;26.00;;;;;;5053430;28;20063;-73
2023/10/01 07:38:30;;;;;;;4.65;1.25;;;34.20;26.00;;;;;;5056770;28;20083;-73
2023/10/01 07:40:58;;;;;;;5.65;1.17;;;34.20;26.20;;;;;;5061453;28;20120;-72
2023/10/01 07:43:30;;;;;;;7.10;1.58;;;34.10;26.10;;;;;;5053334;28;20458;-72
2023/10/01 07:46:07;;;;;;;4.82;1.20;;;34.00;26.10;;;;;;5060096;28;20059;-72
2023/10/01 07:48:35;;;;;;;;;;;33.90;26.20;;;;;;5062341;28;20025;-71
2023/10/01 07:51:03;;;;;;;8.73;1.30;;;33.70;26.20;;;;;;5058947;28;19916;-72
2023/10/01 07:53:33;;;;;;;6.97;1.30;;;33.70;26.50;;;;;;5059877;28;20040;-71
2023/10/01 07:56:07;;;;;;;5.97;1.48;;;33.60;26.40;;;;;;5060542;28;20064;-72
2023/10/01 07:58:47;;;;;;;9.23;1.63;;;33.60;26.40;;;;;;5061810;28;20107;-71
2023/10/01 08:04:06;;;;;;;6.80;1.90;;;33.30;26.70;;;;;;5058106;28;20071;-72
2023/10/01 08:06:43;;;;;;;12.35;4.60;;;33.40;26.60;;;;;;5060809;28;20028;-74
2023/10/01 08:09:14;;;;;;;12.05;3.83;;;33.30;27.20;;;;;;5058403;28;20029;-73
2023/10/01 08:15:15;;;;;;;10.23;4.60;;;33.20;26.80;;;;;;5038549;28;20116;-75
2023/10/01 08:17:35;;;;;;;6.85;1.92;;;33.00;27.10;;;;;;5033803;28;20041;-73
2023/10/01 08:20:15;;;;;;;4.35;1.23;;;32.90;27.10;;;;;;5050797;28;20048;-71
2023/10/01 08:23:12;;;;;;;6.53;1.27;;;32.90;27.10;;;;;;5052526;28;20049;-71
2023/10/01 08:25:34;;;;;;;5.10;1.35;;;32.70;27.30;;;;;;5055386;28;20094;-72
2023/10/01 08:30:43;;;;;;;5.93;1.40;;;32.70;27.60;;;;;;5060563;28;20106;-73
2023/10/01 08:33:32;;;;;;;9.68;1.88;;;32.60;27.50;;;;;;5055782;28;20040;-72
2023/10/01 08:36:12;;;;;;;2.88;1.30;;;32.40;27.70;;;;;;5055149;28;20025;-72
2023/10/01 08:38:47;;;;;;;4.18;1.40;;;32.20;27.80;;;;;;5058391;28;20032;-71
2023/10/01 08:44:09;;;;;;;3.33;1.60;;;31.70;28.20;;;;;;5052356;28;20781;-75
2023/10/01 08:49:22;;;;;;;4.65;1.65;;;31.90;28.10;;;;;;5066902;23;20053;-72
2023/10/01 08:52:18;;;;;;;4.35;1.55;;;31.80;28.10;;;;;;5055567;28;20150;-73
2023/10/01 08:54:48;;;;;;;3.83;1.50;;;31.70;28.20;;;;;;5076518;28;20040;-72
2023/10/01 08:57:18;;;;;;;3.80;1.52;;;31.50;28.30;;;;;;5067562;28;20071;-72
2023/10/01 08:59:53;;;;;;;4.10;1.50;;;31.30;28.50;;;;;;5070535;28;20044;-72
2023/10/01 09:02:23;;;;;;;4.00;1.42;;;31.00;28.70;;;;;;5063399;28;20024;-72
2023/10/01 09:04:50;;;;;;;10.63;1.65;;;30.80;28.80;;;;;;5072324;28;20024;-72
2023/10/01 09:07:21;;;;;;;3.67;1.67;;;30.60;29.10;;;;;;5072955;28;20023;-72
2023/10/01 09:10:07;;;;;;;11.13;2.13;;;30.50;29.90;;;;;;5068804;28;20020;-73
2023/10/01 09:12:35;;;;;;;4.63;1.88;;;30.30;30.10;;;;;;5071633;28;20032;-72
2023/10/01 09:15:07;;;;;;;4.35;2.00;;;30.00;30.10;;;;;;5056320;28;20032;-71
2023/10/01 09:17:40;;;;;;;5.32;1.75;;;29.90;30.10;;;;;;5074309;28;20058;-71
2023/10/01 09:20:17;;;;;;;6.32;2.22;;;29.70;31.80;;;;;;5060542;28;20028;-71
2023/10/01 09:23:01;;;;;;;7.05;2.90;;;29.50;33.20;;;;;;5072637;28;20036;-71
2023/10/01 09:25:30;;;;;;;7.22;4.63;;;29.40;32.90;;;;;;5076490;28;20046;-71
2023/10/01 09:28:19;;;;;;;5.32;4.25;;;29.20;33.30;;;;;;5073800;28;20047;-70
2023/10/01 09:31:26;;;;;;;7.78;4.72;;;29.20;33.20;;;;;;5079027;28;20020;-70
2023/10/01 09:33:51;;;;;;;10.88;4.28;;;29.10;34.50;;;;;;5078994;28;20024;-72
2023/10/01 09:36:45;;;;;;;6.90;2.60;;;29.00;34.20;;;;;;5069672;28;20028;-70
2023/10/01 09:39:22;;;;;;;11.52;2.83;;;29.00;33.00;;;;;;5068963;28;20060;-70
2023/10/01 09:41:51;;;;;;;;;;;29.00;34.30;;;;;;5071712;28;20066;-69
2023/10/01 09:44:18;;;;;;;6.70;2.08;;;28.90;35.40;;;;;;5075724;28;19924;-70
2023/10/01 09:46:47;;;;;;;7.80;1.73;;;28.90;34.30;;;;;;5070484;28;20110;-69
2023/10/01 09:49:30;;;;;;;6.82;1.98;;;28.80;33.00;;;;;;5065629;28;20054;-70
2023/10/01 09:52:00;;;;;;;8.55;2.67;;;28.80;33.00;;;;;;5080862;28;20072;-68
2023/10/01 09:54:28;;;;;;;8.05;4.13;;;28.80;32.30;;;;;;5080723;28;20070;-70
2023/10/01 09:57:03;;;;;;;9.48;4.40;;;28.80;32.10;;;;;;5079546;28;20107;-71
2023/10/01 09:59:40;;;;;;;8.82;3.67;;;28.80;32.10;;;;;;5061555;28;20028;-72
2023/10/01 10:02:09;;;;;;;9.70;3.03;;;28.80;31.90;;;;;;5075542;28;20028;-72
2023/10/01 10:04:40;;;;;;;6.15;2.75;;;28.80;31.90;;;;;;5081362;28;20032;-72
2023/10/01 10:07:09;;;;;;;5.63;2.53;;;28.70;32.30;;;;;;5057172;28;20475;-72
2023/10/01 10:09:37;;;;;;;7.82;3.00;;;28.70;32.10;;;;;;5077713;28;20015;-72
2023/10/01 10:12:07;;;;;;;8.25;3.10;;;28.60;32.10;;;;;;5076902;28;20033;-72
2023/10/01 10:14:34;;;;;;;6.90;3.20;;;28.50;32.10;;;;;;5073844;28;20016;-72
2023/10/01 10:23:21;;;;;;;8.20;2.30;;;28.50;32.00;;;;;;5076731;28;20048;-73
2023/10/01 10:25:48;;;;;;;5.05;1.98;;;28.40;32.10;;;;;;5055673;28;20028;-72
2023/10/01 10:28:29;;;;;;;6.53;2.17;;;28.30;32.00;;;;;;5054578;28;20384;-72
2023/10/01 10:31:32;;;;;;;5.25;2.10;;;28.30;32.50;;;;;;5082870;28;20039;-72
2023/10/01 10:34:29;;;;;;;6.72;2.40;;;28.20;33.10;;;;;;5075505;28;20070;-72
2023/10/01 10:36:58;;;;;;;25.70;5.20;;;28.30;34.30;;;;;;5075160;28;20032;-71
2023/10/01 10:40:02;;;;;;;25.67;6.75;;;28.10;42.70;;;;;;5056267;28;20420;-73
2023/10/01 10:42:30;;;;;;;35.13;7.03;;;27.10;48.20;;;;;;5072942;28;20421;-70
2023/10/01 10:45:22;;;;;;;45.10;8.50;;;26.10;52.30;;;;;;5070434;28;20499;-70
2023/10/01 10:48:03;;;;;;;41.75;7.55;;;25.30;54.90;;;;;;5064803;28;20013;-67
2023/10/01 10:50:50;;;;;;;45.60;8.25;;;24.90;56.70;;;;;;5070244;28;20035;-68
2023/10/01 10:53:22;;;;;;;48.93;8.60;;;24.70;57.90;;;;;;5050741;28;20035;-68
2023/10/01 10:56:04;;;;;;;43.50;7.38;;;24.50;58.80;;;;;;5075019;28;20428;-70
2023/10/01 10:58:43;;;;;;;42.03;8.65;;;24.50;59.70;;;;;;5073764;28;20078;-71
2023/10/01 11:01:22;;;;;;;42.35;9.10;;;24.40;60.90;;;;;;5068402;28;21221;-69
2023/10/01 11:03:57;;;;;;;44.30;8.57;;;24.20;62.50;;;;;;5071544;28;20546;-70
2023/10/01 11:06:47;;;;;;;43.15;8.48;;;23.90;64.40;;;;;;5058691;28;20032;-70
2023/10/01 11:09:25;;;;;;;41.95;8.93;;;23.70;65.90;;;;;;5075202;28;20115;-70
2023/10/01 11:12:04;;;;;;;58.65;9.60;;;23.70;67.20;;;;;;5069677;28;20025;-70
2023/10/01 11:14:33;;;;;;;50.25;10.73;;;23.50;69.00;;;;;;5072442;28;20024;-69
2023/10/01 11:17:01;;;;;;;45.38;8.52;;;23.20;70.70;;;;;;5075432;28;20035;-70
2023/10/01 11:19:35;;;;;;;44.70;8.80;;;23.10;72.20;;;;;;5074743;28;20081;-69
2023/10/01 11:22:05;;;;;;;56.45;10.18;;;23.00;73.40;;;;;;5071795;28;20025;-70
2023/10/01 11:24:42;;;;;;;52.15;9.50;;;22.80;74.80;;;;;;5077949;28;20055;-70
2023/10/01 11:28:04;;;;;;;43.95;8.82;;;22.70;75.90;;;;;;5077194;28;20435;-70
2023/10/01 11:30:20;;;;;;;58.40;9.55;;;22.50;77.00;;;;;;5057990;28;20043;-70
2023/10/01 11:33:02;;;;;;;50.57;9.43;;;22.40;78.30;;;;;;5075040;28;20035;-70
2023/10/01 11:35:34;;;;;;;41.40;9.02;;;22.30;79.30;;;;;;5079710;28;20307;-69
2023/10/01 11:38:22;;;;;;;49.75;8.80;;;22.20;80.10;;;;;;5075182;28;20542;-70
2023/10/01 11:41:13;;;;;;;50.25;9.38;;;22.00;80.90;;;;;;5080863;28;20455;-70
2023/10/01 11:44:00;;;;;;;54.70;9.77;;;21.80;81.90;;;;;;5077023;28;20035;-70
2023/10/01 11:49:37;;;;;;;58.38;9.95;;;21.80;82.70;;;;;;5081207;28;20060;-70
2023/10/01 11:52:25;;;;;;;56.72;9.43;;;21.70;82.90;;;;;;5058020;28;20028;-71
2023/10/01 11:54:53;;;;;;;45.45;9.38;;;21.60;83.30;;;;;;5084413;28;20032;-71
2023/10/01 11:57:31;;;;;;;48.72;8.90;;;21.50;84.20;;;;;;5080258;28;20031;-70
2023/10/01 12:00:01;;;;;;;49.10;8.90;;;21.70;84.00;;;;;;5074918;28;20434;-69
2023/10/01 12:02:33;;;;;;;52.78;9.25;;;21.70;84.00;;;;;;5076138;28;20036;-69
2023/10/01 12:05:04;;;;;;;52.10;9.00;;;21.50;84.10;;;;;;5078939;28;20028;-69
2023/10/01 12:07:44;;;;;;;50.13;8.93;;;21.40;84.30;;;;;;5060970;28;20029;-69
2023/10/01 12:10:32;;;;;;;51.95;9.35;;;21.40;84.40;;;;;;5076309;28;20047;-69
2023/10/01 12:12:59;;;;;;;45.70;9.20;;;21.30;84.30;;;;;;5077489;28;20459;-70
2023/10/01 12:15:51;;;;;;;63.92;9.38;;;21.30;84.50;;;;;;5075337;28;20036;-68
2023/10/01 12:18:18;;;;;;;54.78;10.27;;;21.30;84.10;;;;;;5076885;28;20101;-69
2023/10/01 12:20:55;;;;;;;54.80;10.10;;;21.30;83.80;;;;;;5077952;28;20464;-69
2023/10/01 12:23:26;;;;;;;45.78;9.15;;;21.20;83.30;;;;;;5074539;28;20047;-69
2023/10/01 12:26:31;;;;;;;53.67;7.95;;;21.30;82.30;;;;;;5071648;28;20373;-69
2023/10/01 12:29:11;;;;;;;42.88;8.90;;;21.20;82.10;;;;;;5074674;28;20028;-69
2023/10/01 12:31:27;;;;;;;51.33;8.85;;;21.00;82.50;;;;;;5075801;28;20032;-68
2023/10/01 12:33:58;;;;;;;54.58;10.00;;;21.10;81.90;;;;;;5074587;28;20076;-70
2023/10/01 12:36:32;;;;;;;48.13;9.10;;;21.10;81.80;;;;;;5071777;28;20025;-69
2023/10/01 12:44:32;;;;;;;47.50;7.75;;;21.00;81.60;;;;;;5066788;28;20039;-70
2023/10/01 12:47:02;;;;;;;47.88;7.80;;;21.10;80.20;;;;;;5068334;28;20032;-70
2023/10/01 12:49:33;;;;;;;53.40;8.02;;;21.00;80.40;;;;;;5069642;28;20059;-70
2023/10/01 12:52:14;;;;;;;45.60;7.85;;;21.00;80.50;;;;;;5075282;28;20076;-69
2023/10/01 12:54:41;;;;;;;41.42;7.32;;;20.90;80.70;;;;;;5084386;28;20071;-69
2023/10/01 12:57:09;;;;;;;41.35;7.40;;;20.90;80.80;;;;;;5073114;28;20082;-69
2023/10/01 12:59:44;;;;;;;53.38;9.85;;;20.80;80.90;;;;;;5069677;28;20051;-69
2023/10/01 13:02:28;;;;;;;51.70;9.23;;;20.80;80.80;;;;;;5072848;28;20447;-69
2023/10/01 13:05:19;;;;;;;55.47;7.70;;;20.80;80.90;;;;;;5074369;28;20114;-70
2023/10/01 13:07:49;;;;;;;48.97;7.85;;;21.00;80.10;;;;;;5082302;28;20029;-69
2023/10/01 13:10:18;;;;;;;44.72;7.85;;;21.10;79.70;;;;;;5081258;28;20043;-69
2023/10/01 13:12:56;;;;;;;52.60;7.82;;;21.00;80.10;;;;;;5088687;28;20090;-69
2023/10/01 13:15:30;;;;;;;46.50;7.43;;;20.90;80.00;;;;;;5070628;28;20025;-68
2023/10/01 13:18:01;;;;;;;49.40;8.23;;;21.10;79.50;;;;;;5074992;28;20040;-68
2023/10/01 13:20:29;;;;;;;43.30;8.15;;;21.00;79.60;;;;;;5076346;28;20353;-69
2023/10/01 13:23:06;;;;;;;40.25;8.82;;;20.90;80.00;;;;;;5077984;28;20029;-69
2023/10/01 13:25:36;;;;;;;52.70;8.15;;;20.80;80.30;;;;;;5076899;28;20021;-70
2023/10/01 13:28:04;;;;;;;41.28;7.35;;;20.70;81.00;;;;;;5077330;28;20028;-69
2023/10/01 13:31:03;;;;;;;47.30;6.75;;;20.70;81.10;;;;;;5080310;28;20032;-69
2023/10/01 13:33:22;;;;;;;50.28;7.57;;;20.70;81.00;;;;;;5077036;28;20470;-69
2023/10/01 13:35:52;;;;;;;44.83;7.78;;;20.80;80.40;;;;;;5079107;28;20071;-69
2023/10/01 14:08:43;;;;;;;41.25;7.03;;;20.00;82.00;;;;;;5076554;28;20031;-69
2023/10/01 14:11:11;;;;;;;39.85;7.57;;;20.00;82.00;;;;;;5063183;28;20070;-69
2023/10/01 14:13:41;;;;;;;38.85;6.75;;;20.00;82.00;;;;;;5078193;28;20102;-69
2023/10/01 14:16:16;;;;;;;50.20;6.60;;;20.00;82.30;;;;;;5059746;28;20471;-69
2023/10/01 14:19:13;;;;;;;46.20;6.25;;;19.90;82.70;;;;;;5082983;28;20102;-68
2023/10/01 14:21:41;;;;;;;45.70;8.45;;;19.70;83.00;;;;;;5075767;28;20105;-69
2023/10/01 14:24:26;;;;;;;31.77;7.07;;;19.80;83.30;;;;;;5076656;28;20028;-69
2023/10/01 14:26:55;;;;;;;35.72;6.50;;;20.00;82.30;;;;;;5076402;28;20036;-69
2023/10/01 14:29:23;;;;;;;45.25;6.50;;;20.10;81.90;;;;;;5071281;28;20503;-70
2023/10/01 14:31:54;;;;;;;43.53;6.28;;;20.00;82.10;;;;;;5072379;28;20498;-70
2023/10/01 14:34:23;;;;;;;33.63;6.18;;;20.00;82.10;;;;;;5052094;28;20045;-69
2023/10/01 14:37:00;;;;;;;35.30;6.00;;;20.00;81.90;;;;;;5071573;28;20066;-69
2023/10/01 14:39:30;;;;;;;37.25;6.20;;;20.00;81.90;;;;;;5073725;28;20390;-69
2023/10/01 14:41:58;;;;;;;36.00;6.70;;;20.00;81.90;;;;;;5074737;28;20032;-68
2023/10/01 14:44:25;;;;;;;43.85;6.78;;;20.10;81.70;;;;;;5072079;28;20024;-69
2023/10/01 14:46:56;;;;;;;38.47;7.57;;;20.10;81.70;;;;;;5074449;28;20028;-70
2023/10/01 14:49:24;;;;;;;31.23;5.70;;;20.00;82.20;;;;;;4969581;28;2917776;-69